Airport View

Enter AWOS ICAO identifier for current METAR.

ex. KFNL

KMRN 210030Z AUTO 00000KT 10SM CLR 18/16 A3032 RMK AO2 T01800161

21 Sep 2019 00:30

Frequency: 124.175

Phone: 828-757-0788

Other Area AWOS: KHKY - KTNB - KFQD - KIPJ

TAF KHKY 202332Z 2100/2124 VRB02KT P6SM SKC FM211600 19004KT P6SM FEW250